TimeAKST,TemperatureF,Dew PointF,Humidity,Sea Level PressureIn,VisibilityMPH,Wind Direction,Wind SpeedMPH,Gust SpeedMPH,PrecipitationIn,Events,Conditions,WindDirDegrees,DateUTC
12:16 AM,39.2,33.8,81,29.88,10.0,ESE,5.8,-,N/A,,Overcast,120,2014-01-02 09:16:00
12:36 AM,39.2,33.8,81,29.88,10.0,SSE,5.8,-,N/A,,Overcast,150,2014-01-02 09:36:00
12:56 AM,39.2,33.8,81,29.89,10.0,SSW,10.4,-,N/A,,Overcast,200,2014-01-02 09:56:00
1:16 AM,37.4,33.8,87,29.88,10.0,SE,4.6,-,N/A,,Overcast,130,2014-01-02 10:16:00
1:36 AM,37.4,33.8,87,29.87,10.0,Calm,Calm,-,N/A,,Overcast,0,2014-01-02 10:36:00
1:56 AM,37.4,33.8,87,29.86,10.0,ENE,3.5,-,N/A,,Overcast,60,2014-01-02 10:56:00
2:16 AM,37.4,35.6,93,29.85,10.0,ESE,8.1,-,N/A,,Overcast,110,2014-01-02 11:16:00
2:36 AM,37.4,35.6,93,29.84,10.0,ESE,6.9,-,N/A,,Overcast,120,2014-01-02 11:36:00
2:56 AM,37.4,33.8,87,29.83,10.0,Calm,Calm,-,N/A,,Overcast,0,2014-01-02 11:56:00
3:16 AM,39.2,33.8,81,29.84,10.0,South,8.1,-,N/A,,Overcast,170,2014-01-02 12:16:00
3:36 AM,39.2,33.8,81,29.83,10.0,SE,12.7,17.3,N/A,,Overcast,140,2014-01-02 12:36:00
3:56 AM,37.4,33.8,87,29.81,10.0,ESE,8.1,-,N/A,,Overcast,120,2014-01-02 12:56:00
4:16 AM,37.4,33.8,87,29.80,10.0,ESE,6.9,-,N/A,,Overcast,120,2014-01-02 13:16:00
4:36 AM,37.4,33.8,87,29.78,10.0,SE,9.2,-,N/A,,Overcast,140,2014-01-02 13:36:00
4:56 AM,39.2,33.8,81,29.78,10.0,SE,15.0,19.6,N/A,,Overcast,140,2014-01-02 13:56:00
5:16 AM,37.4,33.8,87,29.77,10.0,SE,11.5,18.4,N/A,,Mostly Cloudy,130,2014-01-02 14:16:00
5:36 AM,37.4,33.8,87,29.76,10.0,SE,15.0,23.0,N/A,,Overcast,140,2014-01-02 14:36:00
5:56 AM,37.4,33.8,87,29.75,10.0,SE,18.4,26.5,N/A,,Overcast,140,2014-01-02 14:56:00
6:16 AM,37.4,33.8,87,29.75,10.0,SSE,16.1,24.2,N/A,,Overcast,150,2014-01-02 15:16:00
6:36 AM,39.2,33.8,81,29.75,10.0,SSE,19.6,26.5,N/A,,Overcast,150,2014-01-02 15:36:00
6:56 AM,37.4,33.8,87,29.75,10.0,SE,15.0,26.5,N/A,,Overcast,140,2014-01-02 15:56:00
7:16 AM,37.4,33.8,87,29.75,10.0,SE,17.3,25.3,N/A,,Overcast,140,2014-01-02 16:16:00
7:36 AM,37.4,33.8,87,29.75,10.0,SE,11.5,17.3,N/A,,Overcast,140,2014-01-02 16:36:00
7:56 AM,37.4,33.8,87,29.75,10.0,SE,15.0,-,N/A,,Overcast,140,2014-01-02 16:56:00
8:16 AM,37.4,33.8,87,29.75,10.0,SE,15.0,-,N/A,,Overcast,140,2014-01-02 17:16:00
8:36 AM,37.4,33.8,87,29.75,10.0,SE,16.1,-,N/A,,Overcast,140,2014-01-02 17:36:00
8:56 AM,37.4,33.8,87,29.75,10.0,SE,13.8,-,N/A,,Overcast,130,2014-01-02 17:56:00
9:16 AM,37.4,33.8,87,29.75,10.0,SE,11.5,-,N/A,,Overcast,140,2014-01-02 18:16:00
9:36 AM,37.4,35.6,93,29.75,10.0,SE,13.8,-,N/A,,Overcast,130,2014-01-02 18:36:00
9:56 AM,37.4,33.8,87,29.76,10.0,SSE,9.2,-,N/A,,Overcast,150,2014-01-02 18:56:00
10:16 AM,37.4,33.8,87,29.76,10.0,SE,10.4,-,N/A,,Overcast,140,2014-01-02 19:16:00
10:36 AM,37.4,33.8,87,29.76,10.0,SE,11.5,-,N/A,,Overcast,130,2014-01-02 19:36:00
10:56 AM,37.4,33.8,87,29.77,10.0,South,3.5,-,N/A,,Overcast,190,2014-01-02 19:56:00
11:16 AM,37.4,33.8,87,29.78,5.0,SW,3.5,-,N/A,,Overcast,230,2014-01-02 20:16:00
11:36 AM,35.6,33.8,93,29.78,5.0,Calm,Calm,-,N/A,,Overcast,0,2014-01-02 20:36:00
11:56 AM,35.6,33.8,93,29.77,4.0,SSE,3.5,-,N/A,,Overcast,160,2014-01-02 20:56:00
12:16 PM,33.8,32.0,93,29.78,10.0,East,6.9,-,N/A,,Overcast,90,2014-01-02 21:16:00
12:36 PM,35.6,33.8,93,29.77,10.0,East,5.8,-,N/A,,Overcast,100,2014-01-02 21:36:00
12:56 PM,35.6,33.8,93,29.77,10.0,ENE,3.5,-,N/A,,Overcast,60,2014-01-02 21:56:00
1:16 PM,35.6,33.8,93,29.78,4.0,North,4.6,-,N/A,,Overcast,360,2014-01-02 22:16:00
1:36 PM,33.8,32.0,93,29.78,5.0,Calm,Calm,-,N/A,,Overcast,0,2014-01-02 22:36:00
1:56 PM,35.6,33.8,93,29.78,10.0,ENE,3.5,-,N/A,,Overcast,60,2014-01-02 22:56:00
2:16 PM,35.6,33.8,93,29.79,10.0,ESE,3.5,-,N/A,,Overcast,120,2014-01-02 23:16:00
2:36 PM,35.6,33.8,93,29.79,5.0,Calm,Calm,-,N/A,,Overcast,0,2014-01-02 23:36:00
2:56 PM,35.6,35.6,100,29.80,7.0,East,5.8,-,N/A,,Overcast,100,2014-01-02 23:56:00
3:16 PM,35.6,33.8,93,29.81,10.0,SSE,3.5,-,N/A,,Overcast,150,2014-01-03 00:16:00
3:36 PM,37.4,33.8,87,29.81,10.0,SE,3.5,-,N/A,,Overcast,130,2014-01-03 00:36:00
3:56 PM,37.4,33.8,87,29.82,10.0,SE,3.5,-,N/A,,Overcast,140,2014-01-03 00:56:00
4:16 PM,35.6,33.8,93,29.83,10.0,SE,5.8,-,N/A,,Overcast,130,2014-01-03 01:16:00
4:36 PM,35.6,33.8,93,29.83,10.0,ESE,4.6,-,N/A,,Overcast,110,2014-01-03 01:36:00
4:56 PM,35.6,35.6,100,29.83,10.0,ESE,4.6,-,N/A,,Overcast,120,2014-01-03 01:56:00
5:16 PM,35.6,33.8,93,29.84,10.0,Calm,Calm,-,N/A,,Overcast,0,2014-01-03 02:16:00
5:36 PM,35.6,35.6,100,29.85,10.0,Calm,Calm,-,N/A,,Overcast,0,2014-01-03 02:36:00
5:56 PM,35.6,35.6,100,29.86,10.0,Calm,Calm,-,N/A,,Overcast,0,2014-01-03 02:56:00
6:16 PM,35.6,33.8,93,29.87,3.0,Calm,Calm,-,N/A,,Overcast,0,2014-01-03 03:16:00
6:36 PM,33.8,33.8,100,29.88,8.0,North,3.5,-,N/A,,Overcast,360,2014-01-03 03:36:00
6:56 PM,35.6,33.8,93,29.89,10.0,NW,5.8,-,N/A,,Overcast,320,2014-01-03 03:56:00
7:16 PM,35.6,33.8,93,29.90,10.0,NNW,5.8,-,N/A,,Overcast,330,2014-01-03 04:16:00
7:36 PM,35.6,33.8,93,29.91,10.0,NNW,3.5,-,N/A,,Overcast,330,2014-01-03 04:36:00
7:56 PM,33.8,33.8,100,29.92,10.0,NNW,5.8,-,N/A,,Overcast,330,2014-01-03 04:56:00
8:16 PM,33.8,33.8,100,29.93,10.0,Calm,Calm,-,N/A,,Mostly Cloudy,0,2014-01-03 05:16:00
8:36 PM,33.8,32.0,93,29.95,7.0,NNW,6.9,-,N/A,,Mostly Cloudy,340,2014-01-03 05:36:00
8:56 PM,33.8,32.0,93,29.96,4.0,North,5.8,-,N/A,,Overcast,350,2014-01-03 05:56:00
9:16 PM,33.8,32.0,93,29.97,2.0,Calm,Calm,-,N/A,,Overcast,0,2014-01-03 06:16:00
9:36 PM,33.8,32.0,93,29.98,6.0,Calm,Calm,-,N/A,,Overcast,0,2014-01-03 06:36:00
9:56 PM,33.8,32.0,93,30.00,10.0,Calm,Calm,-,N/A,,Overcast,0,2014-01-03 06:56:00
10:16 PM,33.8,32.0,93,30.01,10.0,NNW,3.5,-,N/A,,Overcast,340,2014-01-03 07:16:00
10:36 PM,33.8,32.0,93,30.03,10.0,NNW,4.6,-,N/A,,Overcast,330,2014-01-03 07:36:00
10:56 PM,33.8,32.0,93,30.04,5.0,NNW,3.5,-,N/A,,Overcast,340,2014-01-03 07:56:00
11:16 PM,33.8,32.0,93,30.04,10.0,NNW,3.5,-,N/A,,Overcast,330,2014-01-03 08:16:00
11:36 PM,32.0,30.2,93,30.05,9.0,Calm,Calm,-,N/A,,Mostly Cloudy,0,2014-01-03 08:36:00
11:56 PM,32.0,30.2,93,30.06,5.0,Calm,Calm,-,N/A,,Clear,0,2014-01-03 08:56:00